Latest Coastal Weather Observations for Adele Island

IDW60701

Issued at 11:53 pm WST Saturday 25 February 2017 (issued every 10 minutes, with the page automatically refreshed every 10 minutes)

About coastal observations | Map of coastal stations | Coastal observations for WA | Marine services | Other Formats
Station Details ID: 200735 Name: ADELE ISLAND Lat: -15.51 Lon: 123.16 Height: 4.6 m
Data from the previous 72 hours. | See also: Recent months at Adele Island
Date/Time
WST
Temp
°C
Wind Pressure Rain since
9am
mm
Weather Cloud Vis
km
Sea
Height
m
Swell
Dir  Spd
kts
Gust
kts
hPa Trend Height
m
Period
s
Dir
25/11:30pm 28.6 NW 8 9 1009.2 - - - - - - - - -
25/11:00pm 28.4 NW 8 10 1009.4 - - - - - - - - -
25/10:30pm 28.5 NW 9 11 1009.7 - - - - - - - - -
25/10:00pm 28.4 NNW 8 9 1009.9 - - - - - - - - -
25/09:30pm 28.2 NW 7 8 1010.0 - - - - - - - - -
25/09:00pm 28.0 NW 9 11 1009.8 - - - - - - - - -
25/08:30pm 28.7 N 6 7 1009.6 - - - - - - - - -
25/08:00pm 28.7 N 5 6 1009.5 - - - - - - - - -
25/07:30pm 28.7 N 5 6 1008.9 - - - - - - - - -
25/07:00pm 28.6 NNW 3 4 1008.7 - - - - - - - - -
25/06:30pm 28.8 NNE 3 5 1008.2 - - - - - - - - -
25/06:00pm 29.1 WNW 4 5 1008.0 - - - - - - - - -
25/05:30pm 29.4 WSW 3 5 1007.9 - - - - - - - - -
25/05:00pm 29.6 N 2 4 1007.6 - - - - - - - - -
25/04:30pm 29.3 NNE 5 6 1007.1 - - - - - - - - -
25/04:00pm 29.0 NE 7 8 1006.9 - - - - - - - - -
25/03:30pm 29.6 E 6 8 1007.3 - - - - - - - - -
25/03:00pm 30.0 SE 7 9 1007.7 - - - - - - - - -
25/02:30pm 29.0 SE 9 11 1007.7 - - - - - - - - -
25/02:00pm 29.3 SE 13 16 1008.1 - - - - - - - - -
25/01:30pm 29.6 SSE 11 15 1008.5 - - - - - - - - -
25/01:00pm 30.2 SSE 10 15 1008.8 - - - - - - - - -
25/12:30pm 29.1 SSW 9 12 1008.7 - - - - - - - - -
25/12:00pm 27.7 SSW 10 13 1008.6 - - - - - - - - -
25/11:30am 29.0 SW 11 15 1008.8 - - - - - - - - -
25/11:00am 26.3 SW 17 23 1009.6 - - - - - - - - -
25/10:30am 27.4 SSW 18 24 1010.2 - - - - - - - - -
25/10:13am 27.2 SSW 11 26 1010.6 - - - - - - - - -
25/10:00am 30.1 NW 6 7 1010.5 - - - - - - - - -
25/09:30am 29.4 NNE 5 6 1010.6 - - - - - - - - -
25/09:00am 29.0 N 8 9 1010.2 - - - - - - - - -
25/08:30am 28.3 N 7 9 1010.3 - - - - - - - - -
25/08:00am 28.0 N 8 9 1009.7 - - - - - - - - -
25/07:30am 27.6 NNW 10 11 1009.5 - - - - - - - - -
25/07:00am 27.6 NW 13 15 1009.0 - - - - - - - - -
25/06:30am 27.5 NW 11 13 1008.8 - - - - - - - - -
25/06:00am 27.0 NW 10 13 1009.2 - - - - - - - - -
25/05:30am 26.9 NNW 12 14 1009.2 - - - - - - - - -
25/05:00am 26.8 NNW 10 12 1009.1 - - - - - - - - -
25/04:30am 26.3 NNW 10 12 1008.9 - - - - - - - - -
25/04:00am 26.6 NNW 8 10 1008.9 - - - - - - - - -
25/03:30am 26.3 NNW 14 17 1008.9 - - - - - - - - -
25/03:00am 27.0 NNW 18 21 1008.8 - - - - - - - - -
25/02:30am 27.2 NNW 13 16 1008.9 - - - - - - - - -
25/02:00am 27.1 NW 15 19 1008.8 - - - - - - - - -
25/01:30am 27.5 NNW 14 17 1009.3 - - - - - - - - -
25/01:00am 27.2 NW 17 21 1009.3 - - - - - - - - -
25/12:30am 28.9 NW 12 16 1009.3 - - - - - - - - -
25/12:00am 28.6 NW 11 12 1009.3 - - - - - - - - -
 
Date/Time
WST
Temp
°C
Wind Pressure Rain since
9am
mm
Weather Cloud Vis
km
Sea
Height
m
Swell
Dir  Spd
kts
Gust
kts
hPa Trend Height
m
Period
s
Dir
24/11:30pm 28.6 WNW 12 15 1008.9 - - - - - - - - -
24/11:00pm 27.9 W 13 17 1009.6 - - - - - - - - -
24/10:30pm 28.3 WSW 15 20 1009.3 - - - - - - - - -
24/10:00pm 28.3 SSW 14 24 1009.5 - - - - - - - - -
24/09:54pm 26.4 SE 11 24 1010.0 - - - - - - - - -
24/09:30pm 29.2 WNW 8 10 1009.7 - - - - - - - - -
24/09:00pm 29.4 WNW 8 11 1009.3 - - - - - - - - -
24/08:30pm 29.1 WSW 8 10 1009.0 - - - - - - - - -
24/08:00pm 29.4 W 7 8 1009.0 - - - - - - - - -
24/07:30pm 29.7 SSW 7 8 1008.9 - - - - - - - - -
24/07:00pm 29.1 SSW 10 11 1008.4 - - - - - - - - -
24/06:30pm 29.3 W 7 9 1008.1 - - - - - - - - -
24/06:00pm 29.9 SW 7 11 1007.8 - - - - - - - - -
24/05:30pm 30.7 N 3 6 1007.6 - - - - - - - - -
24/05:00pm 29.4 ENE 17 24 1008.6 - - - - - - - - -
24/04:45pm 29.5 ESE 18 24 1008.8 - - - - - - - - -
24/04:38pm 29.6 SSE 15 24 1008.9 - - - - - - - - -
24/04:30pm 30.0 S 11 15 1008.9 - - - - - - - - -
24/04:00pm 30.4 SSW 11 15 1008.5 - - - - - - - - -
24/03:30pm 30.1 SSW 12 15 1008.0 - - - - - - - - -
24/03:00pm 30.5 SSW 13 16 1008.1 - - - - - - - - -
24/02:30pm 30.0 SW 14 17 1008.0 - - - - - - - - -
24/02:00pm 30.6 WSW 15 17 1007.9 - - - - - - - - -
24/01:30pm 30.7 WSW 15 18 1008.4 - - - - - - - - -
24/01:00pm 30.2 SW 15 18 1009.0 - - - - - - - - -
24/12:30pm 30.6 SSW 15 18 1009.4 - - - - - - - - -
24/12:00pm 30.7 SSW 15 19 1009.9 - - - - - - - - -
24/11:30am 30.9 SSW 14 17 1010.3 - - - - - - - - -
24/11:00am 30.5 SSW 14 17 1010.4 - - - - - - - - -
24/10:30am 30.8 SW 15 18 1010.6 - - - - - - - - -
24/10:00am 30.4 SW 10 13 1010.8 - - - - - - - - -
24/09:30am 30.6 WSW 9 11 1011.1 - - - - - - - - -
24/09:00am 29.9 WSW 7 8 1011.3 - - - - - - - - -
24/08:30am 30.2 W 7 8 1011.6 - - - - - - - - -
24/08:00am 30.1 NNW 6 6 1011.5 - - - - - - - - -
24/07:30am 29.4 N 5 6 1011.5 - - - - - - - - -
24/07:00am 28.9 WNW 4 5 1011.3 - - - - - - - - -
24/06:30am 28.6 WNW 5 5 1011.2 - - - - - - - - -
24/06:00am 28.2 NW 7 8 1011.2 - - - - - - - - -
24/05:30am 28.4 WNW 6 7 1011.4 - - - - - - - - -
24/05:00am 27.7 WNW 9 10 1011.0 - - - - - - - - -
24/04:30am 27.3 WNW 10 12 1011.1 - - - - - - - - -
24/04:00am 27.0 NW 15 18 1010.7 - - - - - - - - -
24/03:30am 28.1 NW 14 17 1010.9 - - - - - - - - -
24/03:00am 28.4 NNW 17 19 1010.5 - - - - - - - - -
24/02:30am 28.0 WNW 10 12 1009.7 - - - - - - - - -
24/02:00am 27.5 WNW 7 15 1009.9 - - - - - - - - -
24/01:38am 28.8 NNW 21 34 1009.8 - - - - - - - - -
24/01:36am 29.2 N 20 34 1010.2 - - - - - - - - -
24/01:31am 27.0 NNW 10 25 1010.7 - - - - - - - - -
24/01:30am 28.6 NW 8 25 1010.8 - - - - - - - - -
24/01:00am 29.3 SW 14 17 1010.0 - - - - - - - - -
24/12:30am 29.1 SW 13 16 1010.4 - - - - - - - - -
24/12:00am 29.1 SW 13 16 1010.8 - - - - - - - - -
 
Date/Time
WST
Temp
°C
Wind Pressure Rain since
9am
mm
Weather Cloud Vis
km
Sea
Height
m
Swell
Dir  Spd
kts
Gust
kts
hPa Trend Height
m
Period
s
Dir
23/11:30pm 29.2 WSW 12 15 1010.9 - - - - - - - - -
23/11:00pm 29.2 SW 12 16 1011.2 - - - - - - - - -
23/10:30pm 29.2 WSW 12 15 1011.2 - - - - - - - - -
23/10:00pm 29.2 SW 12 15 1011.2 - - - - - - - - -
23/09:30pm 29.1 SW 12 17 1010.8 - - - - - - - - -
23/09:00pm 29.1 SW 13 17 1010.6 - - - - - - - - -
23/08:30pm 29.2 SW 14 18 1010.4 - - - - - - - - -
23/08:00pm 29.2 SW 13 17 1010.0 - - - - - - - - -
23/07:30pm 29.3 SW 12 15 1009.7 - - - - - - - - -
23/07:00pm 29.2 SSW 12 16 1009.6 - - - - - - - - -
23/06:30pm 29.4 SW 13 15 1009.4 - - - - - - - - -
23/06:00pm 29.5 SW 14 17 1009.2 - - - - - - - - -
23/05:30pm 29.8 SW 13 16 1008.8 - - - - - - - - -
23/05:00pm 29.7 WSW 14 17 1008.7 - - - - - - - - -
23/04:30pm 30.0 WSW 13 17 1008.7 - - - - - - - - -
23/04:00pm 30.2 SW 14 17 1008.8 - - - - - - - - -
23/03:30pm 31.0 WSW 13 16 1008.8 - - - - - - - - -
23/03:00pm 30.6 WSW 12 16 1009.0 - - - - - - - - -
23/02:30pm 30.5 SW 12 15 1009.1 - - - - - - - - -
23/02:00pm 30.5 SW 12 15 1009.2 - - - - - - - - -
23/01:30pm 30.1 SSW 10 13 1009.4 - - - - - - - - -
23/01:00pm 30.4 SSW 12 15 1009.5 - - - - - - - - -
23/12:30pm 30.6 SW 13 15 1009.7 - - - - - - - - -
23/12:00pm 30.6 SSW 13 16 1010.1 - - - - - - - - -
23/11:30am 30.3 SSW 12 15 1010.4 - - - - - - - - -
23/11:00am 30.1 SSW 11 14 1010.6 - - - - - - - - -
23/10:30am 29.7 SSW 10 12 1010.9 - - - - - - - - -
23/10:00am 29.9 SSW 11 13 1011.1 - - - - - - - - -
23/09:30am 29.7 S 9 11 1011.4 - - - - - - - - -
23/09:00am 29.7 SSW 10 14 1011.6 - - - - - - - - -
23/08:30am 29.8 SSW 11 13 1011.6 - - - - - - - - -
23/08:00am 29.9 SSW 11 14 1011.6 - - - - - - - - -
23/07:30am 29.1 SSW 9 12 1011.4 - - - - - - - - -
23/07:00am 29.0 SSW 9 12 1011.3 - - - - - - - - -
23/06:30am 28.6 SSW 9 13 1010.9 - - - - - - - - -
23/06:00am 28.3 SSW 10 12 1010.6 - - - - - - - - -
23/05:30am 28.3 SW 9 11 1010.4 - - - - - - - - -
23/05:00am 28.4 WSW 8 11 1010.2 - - - - - - - - -
23/04:30am 28.4 SW 8 9 1010.1 - - - - - - - - -
23/04:00am 28.4 SW 9 11 1009.9 - - - - - - - - -
23/03:30am 28.3 WSW 10 12 1009.8 - - - - - - - - -
23/03:00am 28.3 SW 11 14 1010.1 - - - - - - - - -
23/02:30am 28.4 SW 11 13 1009.9 - - - - - - - - -
23/02:00am 28.4 WSW 11 14 1009.9 - - - - - - - - -
23/01:30am 28.3 WSW 9 11 1010.1 - - - - - - - - -
23/01:00am 28.4 SW 10 12 1010.4 - - - - - - - - -
23/12:30am 28.5 SW 8 9 1011.0 - - - - - - - - -
23/12:00am 28.4 SW 9 11 1011.6 - - - - - - - - -

Other Formats:

Comma delimited format used in spreadsheet applications
http://www.bom.gov.au/fwo/IDW60701/IDW60701.94210.axf

JavaScript Object Notation format (JSON) in row-major order
http://www.bom.gov.au/fwo/IDW60701/IDW60701.94210.json